Time;durP1;ratioP1;P1;durP2;ratioP2;P2;SDS_P1;SDS_P2;PMS_P1;PMS_P2;Temp;Humidity;BMP_temperature;BMP_pressure;BME280_temperature;BME280_humidity;BME280_pressure;Samples;Min_cycle;Max_cycle;Signal;HPM_P1;HPM_P2
2024/02/14 00:02:04;;;;;;;9.27;5.68;;;23.60;46.10;;;;;;6151702;28;80699;-49
2024/02/14 00:05:05;;;;;;;9.57;6.32;;;23.60;46.30;;;;;;6152330;28;80677;-53
2024/02/14 00:08:07;;;;;;;10.38;6.50;;;23.60;46.10;;;;;;6153996;28;81583;-52
2024/02/14 00:11:08;;;;;;;10.70;6.53;;;23.50;46.00;;;;;;6143931;28;84577;-53
2024/02/14 00:14:08;;;;;;;11.68;6.80;;;23.50;46.10;;;;;;6151897;28;80861;-52
2024/02/14 00:17:10;;;;;;;11.40;6.75;;;23.50;46.10;;;;;;6152430;28;80408;-50
2024/02/14 00:20:12;;;;;;;11.25;6.90;;;23.50;46.00;;;;;;6152676;28;81505;-65
2024/02/14 00:23:12;;;;;;;11.15;7.22;;;23.50;46.00;;;;;;6152631;28;80625;-64
2024/02/14 00:26:13;;;;;;;12.30;7.95;;;23.50;45.90;;;;;;6152827;28;80326;-64
2024/02/14 00:29:13;;;;;;;11.40;7.07;;;23.50;45.60;;;;;;6152420;28;80609;-70
2024/02/14 00:32:14;;;;;;;14.73;8.52;;;23.40;45.70;;;;;;6147564;28;80680;-70
2024/02/14 00:35:15;;;;;;;14.80;8.30;;;23.50;45.80;;;;;;6152843;28;87275;-70
2024/02/14 00:38:15;;;;;;;11.75;7.47;;;23.50;46.00;;;;;;6168119;28;80395;-69
2024/02/14 00:41:15;;;;;;;12.20;7.47;;;23.50;46.00;;;;;;6161328;28;80469;-72
2024/02/14 00:44:16;;;;;;;13.65;8.23;;;23.50;45.90;;;;;;6152729;28;80718;-72
2024/02/14 00:47:17;;;;;;;14.70;8.55;;;23.50;45.80;;;;;;6148076;28;80888;-69
2024/02/14 00:50:17;;;;;;;12.55;9.10;;;23.50;45.60;;;;;;6156571;28;80734;-67
2024/02/14 00:53:18;;;;;;;12.77;8.32;;;23.50;45.50;;;;;;6156895;28;80450;-67
2024/02/14 00:56:19;;;;;;;12.77;8.80;;;23.50;45.60;;;;;;6147351;28;81634;-66
2024/02/14 00:59:19;;;;;;;13.88;8.55;;;23.40;45.50;;;;;;6138370;28;80484;-65
2024/02/14 01:02:21;;;;;;;14.77;8.43;;;23.50;45.50;;;;;;6156713;28;81711;-65
2024/02/14 01:05:21;;;;;;;12.70;8.18;;;23.50;45.40;;;;;;6156331;28;80810;-66
2024/02/14 01:08:22;;;;;;;13.85;8.07;;;23.50;45.40;;;;;;6144186;28;81276;-68
2024/02/14 01:11:22;;;;;;;15.25;8.55;;;23.50;45.30;;;;;;6145441;28;80547;-65
2024/02/14 01:14:23;;;;;;;12.10;8.05;;;23.50;45.30;;;;;;6152179;28;79967;-61
2024/02/14 01:17:24;;;;;;;15.43;8.70;;;23.50;45.20;;;;;;6155410;28;83429;-62
2024/02/14 01:20:25;;;;;;;13.35;8.13;;;23.50;45.40;;;;;;6155504;28;80064;-61
2024/02/14 01:23:26;;;;;;;14.07;8.63;;;23.50;45.30;;;;;;6156037;28;81093;-61
2024/02/14 01:26:26;;;;;;;16.65;9.13;;;23.50;45.00;;;;;;6154785;28;80440;-62
2024/02/14 01:29:27;;;;;;;13.77;9.02;;;23.50;45.10;;;;;;6143133;28;81243;-61
2024/02/14 01:32:29;;;;;;;16.73;9.27;;;23.50;44.80;;;;;;6152223;28;80791;-72
2024/02/14 01:35:30;;;;;;;15.55;9.13;;;23.50;45.00;;;;;;6170177;28;81281;-72
2024/02/14 01:38:33;;;;;;;18.48;9.73;;;23.50;45.20;;;;;;6156281;28;80531;-71
2024/02/14 01:41:33;;;;;;;15.65;9.32;;;23.50;45.20;;;;;;6141824;28;80449;-73
2024/02/14 01:44:36;;;;;;;16.48;9.82;;;23.50;44.90;;;;;;6154640;28;81559;-69
2024/02/14 01:47:36;;;;;;;15.68;9.48;;;23.50;44.80;;;;;;6152098;28;80495;-69
2024/02/14 01:50:38;;;;;;;16.75;9.55;;;23.60;44.90;;;;;;6154003;28;80483;-70
2024/02/14 01:53:39;;;;;;;15.45;10.00;;;23.50;44.80;;;;;;6155287;28;80824;-71
2024/02/14 01:56:39;;;;;;;17.17;9.73;;;23.50;45.00;;;;;;6139920;28;83259;-70
2024/02/14 01:59:40;;;;;;;17.08;9.80;;;23.50;44.90;;;;;;6142226;28;82942;-71
2024/02/14 02:02:41;;;;;;;18.13;10.70;;;23.50;44.90;;;;;;6149370;28;80836;-72
2024/02/14 02:05:46;;;;;;;14.43;9.07;;;23.50;44.90;;;;;;6145978;28;85131;-68
2024/02/14 02:08:47;;;;;;;15.98;9.23;;;23.50;44.90;;;;;;6146245;28;84284;-67
2024/02/14 02:11:48;;;;;;;16.33;9.75;;;23.50;44.90;;;;;;6153547;28;81359;-69
2024/02/14 02:14:49;;;;;;;17.20;9.85;;;23.50;44.80;;;;;;6154407;28;80608;-70
2024/02/14 02:17:52;;;;;;;15.43;10.15;;;23.40;44.80;;;;;;6153865;28;82914;-73
2024/02/14 02:20:53;;;;;;;15.38;9.80;;;23.40;44.90;;;;;;6152533;28;82658;-73
2024/02/14 02:23:53;;;;;;;17.38;10.55;;;23.50;44.90;;;;;;6154283;28;85951;-73
2024/02/14 02:26:55;;;;;;;16.67;10.60;;;23.40;44.80;;;;;;6151555;28;82952;-72
2024/02/14 02:29:55;;;;;;;16.42;9.93;;;23.40;44.60;;;;;;6150666;28;83732;-68
2024/02/14 02:32:56;;;;;;;18.67;10.07;;;23.40;44.60;;;;;;6152902;28;82909;-70
2024/02/14 02:35:56;;;;;;;19.35;9.63;;;23.40;44.70;;;;;;6151309;28;83570;-69
2024/02/14 02:38:57;;;;;;;18.13;10.45;;;23.30;44.70;;;;;;6142141;28;83068;-70
2024/02/14 02:41:59;;;;;;;19.25;9.73;;;23.30;44.60;;;;;;6144776;28;82998;-70
2024/02/14 02:45:01;;;;;;;16.25;10.10;;;23.40;44.70;;;;;;6153923;28;83314;-71
2024/02/14 02:48:02;;;;;;;16.95;10.25;;;23.40;44.80;;;;;;6151356;28;83214;-61
2024/02/14 02:51:02;;;;;;;16.38;10.30;;;23.40;44.60;;;;;;6150819;28;82994;-60
2024/02/14 02:54:03;;;;;;;18.15;10.07;;;23.40;44.20;;;;;;6150842;28;83030;-60
2024/02/14 02:57:03;;;;;;;16.85;10.13;;;23.40;44.40;;;;;;6150969;28;82965;-60
2024/02/14 03:00:04;;;;;;;17.05;10.38;;;23.40;44.70;;;;;;6140713;28;82997;-61
2024/02/14 03:03:08;;;;;;;17.40;10.10;;;23.40;44.60;;;;;;6150412;28;83526;-60
2024/02/14 03:06:08;;;;;;;16.50;10.25;;;23.40;44.60;;;;;;6141813;28;83594;-72
2024/02/14 03:09:09;;;;;;;21.90;11.15;;;23.40;44.50;;;;;;6149324;28;85180;-72
2024/02/14 03:12:09;;;;;;;16.02;9.13;;;23.40;44.50;;;;;;6173419;28;84419;-71
2024/02/14 03:15:10;;;;;;;19.52;10.98;;;23.50;45.00;;;;;;6155279;28;82819;-68
2024/02/14 03:18:10;;;;;;;15.13;10.20;;;23.40;44.50;;;;;;6150410;28;83149;-68
2024/02/14 03:21:11;;;;;;;19.17;10.32;;;23.40;44.50;;;;;;6149997;28;83701;-69
2024/02/14 03:24:12;;;;;;;18.55;11.00;;;23.40;44.40;;;;;;6150322;28;83045;-70
2024/02/14 03:27:13;;;;;;;19.33;10.07;;;23.40;44.50;;;;;;6150111;28;83225;-68
2024/02/14 03:30:16;;;;;;;16.90;9.80;;;23.40;44.20;;;;;;6150019;28;83221;-69
2024/02/14 03:33:16;;;;;;;19.65;10.13;;;23.40;44.30;;;;;;6145029;28;82125;-70
2024/02/14 03:36:17;;;;;;;15.75;10.48;;;23.40;44.70;;;;;;6148179;28;83108;-67
2024/02/14 03:39:17;;;;;;;15.50;10.15;;;23.40;44.40;;;;;;6149442;28;83542;-67
2024/02/14 03:42:19;;;;;;;17.98;10.70;;;23.40;44.80;;;;;;6148800;28;83083;-66
2024/02/14 03:45:20;;;;;;;18.73;11.32;;;23.40;44.30;;;;;;6147468;28;90923;-65
2024/02/14 03:48:21;;;;;;;19.50;10.35;;;23.40;44.40;;;;;;6173279;28;87240;-65
2024/02/14 03:51:22;;;;;;;16.92;9.63;;;23.40;44.00;;;;;;6150038;28;83920;-67
2024/02/14 03:54:23;;;;;;;18.38;10.35;;;23.40;44.20;;;;;;6147970;28;82920;-66
2024/02/14 03:57:25;;;;;;;17.98;10.02;;;23.40;44.50;;;;;;6145600;28;83493;-67
2024/02/14 04:00:25;;;;;;;16.58;9.95;;;23.40;44.20;;;;;;6137668;28;83558;-70
2024/02/14 04:03:28;;;;;;;15.32;9.55;;;23.40;44.70;;;;;;6153208;28;82992;-67
2024/02/14 04:06:31;;;;;;;16.52;9.65;;;23.40;44.10;;;;;;6153795;28;80247;-69
2024/02/14 04:09:32;;;;;;;16.70;9.43;;;23.40;44.10;;;;;;6152127;28;82144;-69
2024/02/14 04:12:32;;;;;;;14.20;9.18;;;23.40;44.20;;;;;;6153682;28;80853;-70
2024/02/14 04:15:33;;;;;;;17.77;10.48;;;23.40;44.00;;;;;;6152190;28;80955;-70
2024/02/14 04:18:33;;;;;;;16.55;10.00;;;23.50;44.00;;;;;;6148566;28;83155;-62
2024/02/14 04:21:34;;;;;;;17.02;9.45;;;23.50;43.80;;;;;;6148079;28;82983;-63
2024/02/14 04:24:34;;;;;;;15.18;9.00;;;23.40;44.00;;;;;;6152258;28;83276;-64
2024/02/14 04:27:35;;;;;;;16.75;9.20;;;23.40;44.00;;;;;;6151806;28;80726;-63
2024/02/14 04:30:37;;;;;;;17.60;8.95;;;23.50;43.80;;;;;;6135982;28;80887;-63
2024/02/14 04:33:38;;;;;;;15.38;8.70;;;23.50;43.40;;;;;;6151463;28;81197;-62
2024/02/14 04:36:39;;;;;;;15.43;9.15;;;23.50;43.30;;;;;;6152794;28;80380;-62
2024/02/14 04:39:40;;;;;;;13.40;7.70;;;23.50;43.20;;;;;;6152086;28;81372;-59
2024/02/14 04:42:40;;;;;;;14.23;8.80;;;23.60;43.30;;;;;;6134569;28;81925;-59
2024/02/14 04:45:41;;;;;;;15.40;9.30;;;23.60;43.10;;;;;;6149500;28;80342;-61
2024/02/14 04:48:42;;;;;;;17.35;9.50;;;23.60;42.90;;;;;;6148245;28;80591;-64
2024/02/14 04:51:42;;;;;;;15.82;8.75;;;23.70;43.00;;;;;;6140379;28;80349;-59
2024/02/14 04:54:43;;;;;;;16.90;8.80;;;23.70;42.90;;;;;;6149331;28;81091;-51
2024/02/14 04:57:43;;;;;;;13.95;8.32;;;23.70;42.70;;;;;;6147432;28;80579;-47
2024/02/14 05:00:44;;;;;;;15.10;9.20;;;23.70;42.50;;;;;;6139537;28;80311;-51
2024/02/14 05:03:44;;;;;;;13.00;8.18;;;23.70;42.60;;;;;;6149692;28;80481;-48
2024/02/14 05:06:45;;;;;;;16.58;9.05;;;23.70;43.10;;;;;;6151436;28;81074;-49
2024/02/14 05:09:48;;;;;;;15.18;8.30;;;23.80;43.10;;;;;;6147173;28;80900;-47
2024/02/14 05:12:48;;;;;;;13.23;8.10;;;23.80;43.20;;;;;;6146490;28;81439;-50
2024/02/14 05:15:51;;;;;;;16.30;8.73;;;23.80;43.50;;;;;;6150084;28;81032;-47
2024/02/14 05:18:51;;;;;;;13.88;7.82;;;23.80;43.40;;;;;;6149807;28;83332;-47
2024/02/14 05:21:52;;;;;;;12.77;7.82;;;23.80;43.40;;;;;;6151594;28;81492;-48
2024/02/14 05:24:52;;;;;;;13.13;7.30;;;23.80;43.60;;;;;;6150608;28;80638;-51
2024/02/14 05:27:53;;;;;;;11.57;7.10;;;23.90;43.60;;;;;;6147501;28;80236;-53
2024/02/14 05:30:53;;;;;;;14.90;7.20;;;23.90;43.80;;;;;;6151644;28;80979;-48
2024/02/14 05:33:54;;;;;;;13.43;7.22;;;23.90;43.80;;;;;;6150521;28;80691;-49
2024/02/14 05:36:54;;;;;;;14.38;7.38;;;23.80;44.00;;;;;;6143568;28;80350;-49
2024/02/14 05:39:55;;;;;;;14.98;7.35;;;23.90;44.10;;;;;;6155392;28;80810;-50
2024/02/14 05:42:56;;;;;;;15.65;7.90;;;23.90;43.90;;;;;;6154261;28;80869;-49
2024/02/14 05:45:56;;;;;;;14.18;7.68;;;23.90;43.80;;;;;;6155349;28;80906;-56
2024/02/14 05:48:57;;;;;;;14.77;7.70;;;23.90;43.80;;;;;;6138750;28;80933;-53
2024/02/14 05:51:57;;;;;;;14.23;7.03;;;23.90;43.80;;;;;;6134543;28;80649;-54
2024/02/14 05:54:58;;;;;;;13.35;7.25;;;23.90;43.50;;;;;;6150494;28;83449;-57
2024/02/14 05:57:59;;;;;;;16.83;6.93;;;23.90;43.50;;;;;;6137919;28;80497;-47
2024/02/14 06:00:59;;;;;;;13.73;7.38;;;23.90;43.50;;;;;;6147107;28;81141;-50
2024/02/14 06:04:00;;;;;;;13.10;6.90;;;23.90;43.40;;;;;;6150781;28;80714;-50
2024/02/14 06:07:00;;;;;;;13.00;7.30;;;23.90;43.40;;;;;;6152843;28;80910;-53
2024/02/14 06:10:01;;;;;;;12.70;6.38;;;23.90;43.60;;;;;;6151168;28;81038;-51
2024/02/14 06:13:01;;;;;;;14.05;6.53;;;23.80;43.00;;;;;;6138316;28;80891;-51
2024/02/14 06:16:02;;;;;;;14.07;7.10;;;23.80;42.80;;;;;;6152670;28;81107;-51
2024/02/14 06:19:06;;;;;;;13.70;7.05;;;23.70;42.60;;;;;;6153050;28;82390;-51
2024/02/14 06:22:06;;;;;;;13.43;6.03;;;23.70;42.60;;;;;;6143801;28;80382;-51
2024/02/14 06:25:07;;;;;;;11.40;6.90;;;23.70;42.60;;;;;;6152237;28;81191;-50
2024/02/14 06:28:09;;;;;;;11.18;6.05;;;23.60;42.70;;;;;;6150789;28;81722;-50
2024/02/14 06:31:09;;;;;;;12.05;7.18;;;23.60;42.50;;;;;;6151683;28;80614;-52
2024/02/14 06:34:10;;;;;;;9.95;5.93;;;23.60;42.40;;;;;;6144723;28;80801;-53
2024/02/14 06:37:11;;;;;;;12.32;6.55;;;23.60;42.00;;;;;;6158004;28;81501;-54
2024/02/14 06:40:11;;;;;;;13.23;6.57;;;23.60;42.10;;;;;;6177942;28;80423;-53
2024/02/14 06:43:12;;;;;;;13.95;7.15;;;23.60;42.20;;;;;;6168508;28;81443;-53
2024/02/14 06:46:13;;;;;;;11.38;6.40;;;23.60;42.20;;;;;;6153266;28;81327;-71
2024/02/14 06:49:13;;;;;;;10.55;6.38;;;23.60;42.10;;;;;;6141941;28;80874;-69
2024/02/14 06:52:14;;;;;;;11.73;6.50;;;23.60;42.00;;;;;;6155602;28;80434;-70
2024/02/14 06:55:14;;;;;;;13.38;7.53;;;23.60;41.80;;;;;;6154856;28;80467;-69
2024/02/14 06:58:15;;;;;;;12.70;7.15;;;23.60;41.70;;;;;;6146005;28;80405;-68
2024/02/14 07:01:18;;;;;;;13.63;7.10;;;23.60;42.00;;;;;;6152536;28;80473;-69
2024/02/14 07:04:25;;;;;;;12.40;6.97;;;23.60;41.50;;;;;;6152776;28;80914;-51
2024/02/14 07:07:25;;;;;;;16.15;8.13;;;23.60;41.40;;;;;;6156096;28;80682;-51
2024/02/14 07:10:26;;;;;;;12.05;7.13;;;23.60;41.30;;;;;;6155168;28;80676;-50
2024/02/14 07:13:26;;;;;;;13.65;6.97;;;23.60;41.20;;;;;;6155287;28;80510;-51
2024/02/14 07:16:27;;;;;;;10.68;7.43;;;23.60;41.30;;;;;;6153233;28;80681;-54
2024/02/14 07:19:27;;;;;;;17.45;7.65;;;23.60;41.30;;;;;;6144333;28;85296;-54
2024/02/14 07:22:30;;;;;;;14.88;6.18;;;23.60;41.30;;;;;;6155535;28;80454;-67
2024/02/14 07:25:30;;;;;;;12.00;6.45;;;23.70;41.20;;;;;;6154841;28;80053;-66
2024/02/14 07:28:32;;;;;;;15.95;6.97;;;23.70;41.40;;;;;;6156292;28;81561;-66
2024/02/14 07:31:34;;;;;;;15.23;6.65;;;23.70;41.10;;;;;;6150307;28;81774;-65
2024/02/14 07:34:34;;;;;;;10.27;6.30;;;23.70;41.80;;;;;;6155524;28;80840;-65
2024/02/14 07:37:35;;;;;;;10.63;6.32;;;23.70;41.10;;;;;;6147548;28;82208;-71
2024/02/14 07:40:35;;;;;;;11.02;6.82;;;23.70;40.80;;;;;;6139805;28;81129;-67
2024/02/14 07:43:36;;;;;;;13.85;6.75;;;23.70;40.80;;;;;;6151670;28;81723;-69
2024/02/14 07:46:37;;;;;;;9.63;5.60;;;23.80;40.80;;;;;;6149325;28;81289;-67
2024/02/14 07:49:37;;;;;;;14.15;6.50;;;23.80;40.90;;;;;;6154247;28;80622;-67
2024/02/14 07:52:38;;;;;;;12.43;6.20;;;23.90;40.70;;;;;;6155062;28;80418;-68
2024/02/14 07:55:38;;;;;;;12.77;6.10;;;23.90;40.60;;;;;;6142961;28;80554;-68
2024/02/14 07:58:39;;;;;;;13.15;6.10;;;24.00;40.50;;;;;;6151615;28;80988;-64
2024/02/14 08:01:39;;;;;;;10.73;5.95;;;24.00;40.40;;;;;;6136164;28;81325;-64
2024/02/14 08:04:40;;;;;;;10.15;6.05;;;24.00;40.40;;;;;;6163751;28;80487;-66
2024/02/14 08:07:40;;;;;;;12.20;6.63;;;24.10;40.20;;;;;;6168007;28;81585;-65
2024/02/14 08:10:41;;;;;;;9.73;5.10;;;24.10;40.10;;;;;;6153450;28;80836;-63
2024/02/14 08:13:41;;;;;;;12.07;6.18;;;24.10;40.00;;;;;;6153174;28;81438;-63
2024/02/14 08:16:42;;;;;;;10.57;5.45;;;24.10;40.00;;;;;;6145874;28;81516;-70
2024/02/14 08:19:43;;;;;;;8.50;5.18;;;24.10;39.90;;;;;;6152457;28;80485;-65
2024/02/14 08:22:43;;;;;;;9.68;5.15;;;24.10;39.80;;;;;;6151217;28;80720;-61
2024/02/14 08:25:44;;;;;;;8.65;4.70;;;24.20;40.20;;;;;;6153618;28;80443;-66
2024/02/14 08:28:44;;;;;;;10.80;4.43;;;24.20;39.90;;;;;;6149863;28;81807;-69
2024/02/14 08:31:45;;;;;;;11.15;5.53;;;24.30;39.90;;;;;;6144163;28;85191;-70
2024/02/14 08:34:45;;;;;;;10.32;4.75;;;24.30;39.90;;;;;;6137158;28;90423;-69
2024/02/14 08:37:46;;;;;;;9.93;5.47;;;24.30;39.50;;;;;;6163412;28;80443;-68
2024/02/14 08:40:46;;;;;;;11.77;5.72;;;24.30;39.80;;;;;;6141639;28;81198;-69
2024/02/14 08:43:47;;;;;;;12.80;6.53;;;24.40;39.80;;;;;;6145869;28;80587;-68
2024/02/14 08:46:49;;;;;;;11.65;6.30;;;24.40;39.80;;;;;;6134192;28;80671;-69
2024/02/14 08:49:49;;;;;;;14.23;7.05;;;24.40;39.50;;;;;;6145902;28;80718;-70
2024/02/14 08:52:49;;;;;;;9.25;5.30;;;24.50;39.60;;;;;;6151845;28;85780;-69
2024/02/14 08:55:51;;;;;;;7.70;5.28;;;24.50;39.50;;;;;;6150981;28;80639;-68
2024/02/14 08:58:52;;;;;;;11.82;4.80;;;24.50;39.50;;;;;;6148569;28;80184;-68
2024/02/14 09:01:52;;;;;;;8.57;4.80;;;24.50;39.20;;;;;;6137776;28;81880;-69
2024/02/14 09:04:54;;;;;;;11.60;5.30;;;24.50;39.10;;;;;;6150780;28;80331;-68
2024/02/14 09:07:54;;;;;;;9.63;4.68;;;24.60;38.80;;;;;;6140320;28;82111;-66
2024/02/14 09:10:55;;;;;;;7.32;4.05;;;24.60;38.90;;;;;;6145284;28;80412;-67
2024/02/14 09:14:02;;;;;;;6.93;4.25;;;24.60;38.70;;;;;;6147065;28;80398;-53
2024/02/14 09:17:02;;;;;;;9.77;4.78;;;24.60;38.60;;;;;;6152330;28;81415;-53
2024/02/14 09:20:03;;;;;;;6.07;3.53;;;24.60;38.50;;;;;;6152818;28;81242;-50
2024/02/14 09:23:03;;;;;;;5.68;3.78;;;24.70;38.50;;;;;;6151738;28;80945;-49
2024/02/14 09:26:04;;;;;;;5.32;2.83;;;24.70;38.10;;;;;;6154837;28;80722;-48
2024/02/14 09:29:05;;;;;;;5.43;3.25;;;24.70;38.20;;;;;;6154551;28;81625;-49
2024/02/14 09:32:05;;;;;;;6.68;3.17;;;24.70;38.10;;;;;;6141627;28;83514;-68
2024/02/14 09:35:06;;;;;;;6.35;3.45;;;24.70;38.10;;;;;;6144779;28;80347;-68
2024/02/14 09:38:07;;;;;;;6.65;3.47;;;24.80;37.90;;;;;;6144759;28;80241;-68
2024/02/14 09:41:07;;;;;;;6.13;3.08;;;24.80;38.10;;;;;;6140440;28;81051;-69
2024/02/14 09:44:08;;;;;;;12.27;3.05;;;24.80;37.90;;;;;;6131860;28;82748;-64
2024/02/14 09:47:09;;;;;;;3.58;2.15;;;24.80;38.10;;;;;;6147053;28;83317;-71
2024/02/14 09:50:09;;;;;;;3.50;1.60;;;24.60;34.90;;;;;;6145438;28;80588;-67
2024/02/14 09:53:10;;;;;;;3.38;1.73;;;24.40;33.50;;;;;;6162258;28;80636;-66
2024/02/14 09:56:11;;;;;;;3.67;1.58;;;24.30;32.80;;;;;;6182507;28;81031;-68
2024/02/14 09:59:11;;;;;;;2.05;1.50;;;24.10;32.90;;;;;;6161620;28;81674;-64
2024/02/14 10:02:12;;;;;;;3.67;1.35;;;24.10;33.20;;;;;;6156800;28;80359;-70
2024/02/14 10:05:12;;;;;;;3.72;1.58;;;24.10;32.50;;;;;;6173135;28;80915;-71
2024/02/14 10:08:13;;;;;;;2.55;1.42;;;24.00;32.60;;;;;;6175287;28;80163;-68
2024/02/14 10:11:14;;;;;;;2.97;1.40;;;24.00;32.40;;;;;;6166011;28;80497;-69
2024/02/14 10:14:16;;;;;;;3.42;1.50;;;24.00;32.30;;;;;;6122826;28;82382;-70
2024/02/14 10:17:16;;;;;;;4.15;1.60;;;24.00;32.20;;;;;;6149370;28;80688;-69
2024/02/14 10:20:17;;;;;;;3.28;1.40;;;24.00;32.10;;;;;;6166524;28;81143;-67
2024/02/14 10:23:17;;;;;;;3.15;1.30;;;24.00;32.90;;;;;;6180695;28;80261;-70
2024/02/14 10:26:17;;;;;;;2.53;1.33;;;24.00;32.10;;;;;;6164606;28;80704;-67
2024/02/14 10:29:20;;;;;;;3.03;1.20;;;24.00;32.00;;;;;;6146441;28;81605;-68
2024/02/14 10:32:20;;;;;;;4.72;1.38;;;24.10;32.10;;;;;;6153837;28;80420;-67
2024/02/14 10:35:21;;;;;;;3.90;1.92;;;24.10;31.60;;;;;;6142847;28;82572;-68
2024/02/14 10:38:21;;;;;;;3.70;1.50;;;24.10;31.60;;;;;;6148797;28;81626;-68
2024/02/14 10:41:22;;;;;;;4.65;1.67;;;24.10;31.40;;;;;;6156299;28;81461;-64
2024/02/14 10:44:23;;;;;;;3.47;1.60;;;24.10;31.70;;;;;;6152367;28;80359;-61
2024/02/14 10:47:23;;;;;;;2.78;1.48;;;24.10;32.30;;;;;;6155861;28;80444;-60
2024/02/14 10:50:24;;;;;;;4.93;2.03;;;24.10;32.30;;;;;;6155623;28;80762;-61
2024/02/14 10:53:24;;;;;;;10.95;2.10;;;24.20;32.90;;;;;;6155959;28;80624;-60
2024/02/14 10:56:25;;;;;;;4.15;2.03;;;24.20;32.30;;;;;;6158171;28;84957;-61
2024/02/14 10:59:25;;;;;;;5.25;2.40;;;24.20;32.30;;;;;;6157174;28;82048;-61
2024/02/14 11:02:30;;;;;;;4.53;2.40;;;24.30;32.60;;;;;;6171011;28;80423;-63
2024/02/14 11:05:30;;;;;;;3.45;1.63;;;24.30;32.50;;;;;;6175929;28;82653;-59
2024/02/14 11:08:32;;;;;;;4.25;1.42;;;24.40;32.40;;;;;;6179695;28;81953;-59
2024/02/14 11:11:33;;;;;;;6.97;1.70;;;24.40;32.40;;;;;;6176827;28;81467;-60
2024/02/14 11:14:35;;;;;;;4.07;1.52;;;24.40;32.10;;;;;;6177825;28;80305;-62
2024/02/14 11:17:36;;;;;;;2.67;1.48;;;24.40;32.40;;;;;;6166089;28;82519;-60
2024/02/14 11:20:36;;;;;;;1.63;1.27;;;24.40;32.00;;;;;;6167784;28;81026;-58
2024/02/14 11:23:37;;;;;;;5.10;1.35;;;24.40;32.30;;;;;;6155581;28;80203;-59
2024/02/14 11:26:37;;;;;;;5.18;1.65;;;24.40;32.00;;;;;;6165370;28;82387;-60
2024/02/14 11:29:38;;;;;;;3.53;1.58;;;24.50;31.80;;;;;;6156176;28;80537;-58
2024/02/14 11:32:41;;;;;;;3.33;1.60;;;24.50;32.10;;;;;;6160288;28;83958;-57
2024/02/14 11:35:42;;;;;;;3.05;1.70;;;24.50;32.50;;;;;;6163656;28;80792;-56
2024/02/14 11:38:43;;;;;;;6.78;1.92;;;24.60;32.40;;;;;;6179413;28;80741;-56
2024/02/14 11:41:43;;;;;;;1.77;1.42;;;24.60;32.30;;;;;;6176560;28;80376;-55
2024/02/14 11:44:44;;;;;;;2.17;1.50;;;24.60;32.00;;;;;;6154711;28;80964;-56
2024/02/14 11:47:44;;;;;;;3.03;1.60;;;24.60;32.10;;;;;;6168303;28;81943;-54
2024/02/14 11:50:46;;;;;;;3.35;1.38;;;24.60;32.20;;;;;;6165747;28;80497;-52
2024/02/14 11:53:47;;;;;;;2.78;1.50;;;24.70;32.60;;;;;;6178168;28;80696;-52
2024/02/14 11:56:47;;;;;;;3.78;1.70;;;24.70;31.90;;;;;;6174956;28;80991;-53
2024/02/14 11:59:49;;;;;;;4.00;1.63;;;24.70;31.80;;;;;;6161839;28;84270;-55
2024/02/14 12:02:50;;;;;;;4.95;1.60;;;24.70;31.60;;;;;;6177681;28;80592;-57
2024/02/14 12:05:50;;;;;;;3.47;1.60;;;24.70;31.40;;;;;;6177839;28;80862;-55
2024/02/14 12:08:51;;;;;;;2.45;1.60;;;24.70;31.00;;;;;;6176330;28;81347;-57
2024/02/14 12:11:52;;;;;;;3.17;1.70;;;24.70;31.00;;;;;;6173781;28;81230;-53
2024/02/14 12:14:52;;;;;;;4.47;1.80;;;24.70;30.60;;;;;;6166105;28;80510;-53
2024/02/14 12:17:53;;;;;;;3.17;1.58;;;24.70;30.80;;;;;;6161586;28;80664;-56
2024/02/14 12:20:53;;;;;;;2.70;1.48;;;24.70;30.90;;;;;;6157719;28;81198;-54
2024/02/14 12:23:54;;;;;;;3.13;1.60;;;24.70;30.90;;;;;;6162687;28;80384;-60
2024/02/14 12:26:54;;;;;;;3.47;1.67;;;24.70;31.00;;;;;;6164286;28;80365;-58
2024/02/14 12:29:55;;;;;;;3.22;1.88;;;24.70;31.40;;;;;;6163102;28;80646;-57
2024/02/14 12:32:55;;;;;;;1.67;1.23;;;24.80;31.20;;;;;;6161415;28;81358;-57
2024/02/14 12:35:57;;;;;;;4.07;1.90;;;24.80;31.30;;;;;;6165456;28;81841;-57
2024/02/14 12:38:57;;;;;;;4.63;1.73;;;24.80;31.00;;;;;;6164270;28;80718;-57
2024/02/14 12:41:58;;;;;;;3.42;1.63;;;24.80;31.60;;;;;;6170128;28;81043;-53
2024/02/14 12:44:59;;;;;;;3.55;1.60;;;24.80;31.20;;;;;;6168560;28;80558;-53
2024/02/14 12:47:59;;;;;;;2.65;1.83;;;24.90;31.70;;;;;;6170299;28;80836;-49
2024/02/14 12:51:00;;;;;;;4.28;1.70;;;24.80;30.50;;;;;;6166622;28;80856;-57
2024/02/14 12:54:01;;;;;;;3.17;1.70;;;24.80;30.60;;;;;;6163460;28;81511;-52
2024/02/14 12:57:01;;;;;;;3.38;1.67;;;24.80;30.40;;;;;;6174063;28;80345;-48
2024/02/14 13:00:03;;;;;;;5.95;2.38;;;24.80;31.00;;;;;;6169934;28;80423;-51
2024/02/14 13:03:04;;;;;;;3.10;1.67;;;24.80;31.00;;;;;;6178923;28;80397;-52
2024/02/14 13:06:05;;;;;;;5.45;1.50;;;24.80;31.20;;;;;;6179611;28;81731;-51
2024/02/14 13:09:05;;;;;;;4.93;1.65;;;24.80;30.90;;;;;;6179173;28;80944;-50
2024/02/14 13:12:09;;;;;;;2.55;1.50;;;24.60;29.70;;;;;;6179454;28;80497;-52
2024/02/14 13:15:10;;;;;;;3.78;1.60;;;24.50;28.90;;;;;;6177846;28;82628;-54
2024/02/14 13:18:11;;;;;;;3.33;1.58;;;24.50;29.50;;;;;;6159188;28;80446;-48
2024/02/14 13:21:11;;;;;;;2.42;1.70;;;24.50;30.00;;;;;;6157300;28;80326;-55
2024/02/14 13:24:12;;;;;;;3.00;1.63;;;24.40;29.90;;;;;;6177123;28;80416;-51
2024/02/14 13:27:14;;;;;;;5.15;1.77;;;24.30;29.30;;;;;;6177736;28;80904;-54
2024/02/14 13:30:14;;;;;;;9.32;2.80;;;24.20;29.20;;;;;;6177916;28;81094;-53
2024/02/14 13:33:15;;;;;;;3.22;1.92;;;24.10;28.90;;;;;;6178654;28;80869;-53
2024/02/14 13:36:16;;;;;;;4.28;2.50;;;23.70;28.70;;;;;;6179347;28;81249;-51
2024/02/14 13:39:17;;;;;;;7.50;2.58;;;23.70;29.00;;;;;;6168828;28;80890;-48
2024/02/14 13:42:17;;;;;;;3.97;1.60;;;23.80;29.70;;;;;;6168544;28;82280;-51
2024/02/14 13:45:18;;;;;;;5.38;2.20;;;23.90;29.70;;;;;;6175372;28;80659;-53
2024/02/14 13:48:19;;;;;;;6.22;2.13;;;24.00;30.00;;;;;;6173861;28;80299;-52
2024/02/14 13:51:20;;;;;;;3.15;1.77;;;24.00;30.50;;;;;;6162372;28;81497;-48
2024/02/14 13:54:20;;;;;;;4.20;2.30;;;24.00;30.00;;;;;;6165385;28;85220;-53
2024/02/14 13:57:21;;;;;;;3.80;1.90;;;24.00;30.50;;;;;;6166054;28;80179;-47
2024/02/14 14:00:21;;;;;;;4.07;2.28;;;24.00;30.00;;;;;;6157960;28;86633;-51
2024/02/14 14:03:22;;;;;;;3.83;2.05;;;24.00;30.00;;;;;;6171881;28;80302;-51
2024/02/14 14:06:24;;;;;;;8.90;2.20;;;23.90;30.00;;;;;;6173282;28;80951;-45
2024/02/14 14:09:25;;;;;;;8.23;2.40;;;24.00;30.50;;;;;;6150685;28;80956;-48
2024/02/14 14:12:25;;;;;;;3.78;2.10;;;24.00;30.10;;;;;;6142219;28;83649;-43
2024/02/14 14:15:26;;;;;;;3.95;2.13;;;24.00;30.00;;;;;;6166624;28;80809;-46
2024/02/14 14:18:27;;;;;;;3.65;2.00;;;24.20;30.90;;;;;;6166576;28;80493;-46
2024/02/14 14:21:27;;;;;;;3.97;2.17;;;24.30;29.50;;;;;;6174057;28;81444;-50
2024/02/14 14:24:31;;;;;;;3.20;2.00;;;24.50;30.00;;;;;;6177636;28;80519;-50
2024/02/14 14:27:31;;;;;;;6.18;2.10;;;24.70;30.00;;;;;;6177101;28;80375;-46
2024/02/14 14:30:32;;;;;;;6.53;2.13;;;24.70;29.90;;;;;;6175402;28;80350;-47
2024/02/14 14:33:32;;;;;;;7.45;2.50;;;24.70;29.40;;;;;;6179372;28;80595;-46
2024/02/14 14:36:33;;;;;;;3.42;2.00;;;24.60;29.80;;;;;;6177021;28;82772;-48
2024/02/14 14:39:34;;;;;;;5.65;1.90;;;24.60;29.90;;;;;;6168335;28;80084;-50
2024/02/14 14:42:35;;;;;;;4.07;2.15;;;24.60;29.50;;;;;;6173598;28;81427;-49
2024/02/14 14:45:36;;;;;;;4.45;2.42;;;24.40;29.10;;;;;;6177157;28;83744;-47
2024/02/14 14:48:37;;;;;;;4.65;2.10;;;24.30;29.00;;;;;;6160833;28;80856;-52
2024/02/14 14:51:40;;;;;;;3.78;2.35;;;24.20;29.20;;;;;;6165532;28;81136;-49
2024/02/14 14:54:41;;;;;;;4.60;2.10;;;24.10;29.00;;;;;;6153732;28;81109;-48
2024/02/14 14:57:41;;;;;;;3.47;2.05;;;23.90;29.00;;;;;;6154044;28;81205;-48
2024/02/14 15:00:42;;;;;;;4.47;2.10;;;23.80;29.20;;;;;;6152141;28;81305;-52
2024/02/14 15:03:45;;;;;;;6.70;2.20;;;23.80;29.50;;;;;;6166452;28;82374;-55
2024/02/14 15:06:45;;;;;;;3.85;2.35;;;23.70;29.40;;;;;;6178027;28;80705;-50
2024/02/14 15:09:46;;;;;;;4.65;2.63;;;23.60;29.60;;;;;;6176321;28;80425;-52
2024/02/14 15:12:46;;;;;;;3.08;1.85;;;23.50;29.70;;;;;;6177173;28;82046;-52
2024/02/14 15:15:47;;;;;;;6.47;2.80;;;23.50;29.70;;;;;;6176472;28;81358;-52
2024/02/14 15:18:48;;;;;;;8.55;2.15;;;23.50;29.80;;;;;;6150719;28;80759;-48
2024/02/14 15:21:49;;;;;;;6.15;2.20;;;23.40;29.80;;;;;;6156360;28;82027;-52
2024/02/14 15:24:49;;;;;;;7.82;2.70;;;23.40;30.00;;;;;;6163152;28;80689;-54
2024/02/14 15:27:57;;;;;;;6.97;3.53;;;23.30;30.00;;;;;;6154767;28;84765;-52
2024/02/14 15:34:16;;;;;;;7.28;3.78;;;23.10;30.20;;;;;;6156119;28;80786;-48
2024/02/14 15:37:17;;;;;;;9.02;5.72;;;23.00;30.40;;;;;;6156420;28;80360;-52